Time;durP1;ratioP1;P1;durP2;ratioP2;P2;SDS_P1;SDS_P2;PMS_P1;PMS_P2;Temp;Humidity;BMP_temperature;BMP_pressure;BME280_temperature;BME280_humidity;BME280_pressure;Samples;Min_cycle;Max_cycle;Signal;HPM_P1;HPM_P2
2022/05/11 00:01:18;;;;;;;13.00;12.00;;;;;;;;;;5070375;28;20801;-74
2022/05/11 00:03:45;;;;;;;12.37;11.43;;;;;;;;;;5069879;28;20444;-75
2022/05/11 00:06:12;;;;;;;12.57;11.57;;;;;;;;;;5069221;28;20436;-75
2022/05/11 00:08:39;;;;;;;13.20;12.03;;;;;;;;;;5050375;28;20469;-74
2022/05/11 00:11:06;;;;;;;13.90;12.70;;;;;;;;;;5049817;28;20539;-76
2022/05/11 00:13:34;;;;;;;12.87;11.90;;;;;;;;;;5049933;28;20445;-75
2022/05/11 00:16:02;;;;;;;12.40;11.50;;;;;;;;;;5049413;28;20441;-75
2022/05/11 00:18:29;;;;;;;13.20;12.20;;;;;;;;;;5050536;28;20469;-74
2022/05/11 00:20:56;;;;;;;13.37;12.27;;;;;;;;;;5051512;28;20454;-74
2022/05/11 00:23:23;;;;;;;11.90;10.90;;;;;;;;;;5050736;28;20449;-75
2022/05/11 00:25:50;;;;;;;12.40;11.50;;;;;;;;;;5050280;28;20469;-75
2022/05/11 00:28:17;;;;;;;13.03;12.03;;;;;;;;;;5049982;28;20488;-73
2022/05/11 00:30:45;;;;;;;13.00;11.90;;;;;;;;;;5050156;28;20988;-75
2022/05/11 00:33:14;;;;;;;13.43;12.40;;;;;;;;;;5049420;28;20511;-76
2022/05/11 00:35:42;;;;;;;13.27;12.17;;;;;;;;;;5050160;28;20461;-76
2022/05/11 00:38:10;;;;;;;13.00;12.00;;;;;;;;;;5050280;28;20568;-76
2022/05/11 00:40:40;;;;;;;12.33;11.50;;;;;;;;;;5049928;28;20452;-75
2022/05/11 00:43:07;;;;;;;12.20;11.20;;;;;;;;;;5050003;28;20453;-75
2022/05/11 00:45:35;;;;;;;13.73;12.63;;;;;;;;;;5046383;28;20546;-74
2022/05/11 00:49:33;;;;;;;12.03;10.90;;;;;;;;;;5066618;28;20471;-75
2022/05/11 00:50:52;;;;;;;12.47;11.47;;;;;;;;;;5029857;28;20466;-75
2022/05/11 00:53:19;;;;;;;12.43;11.33;;;;;;;;;;5029408;28;20454;-76
2022/05/11 00:55:48;;;;;;;12.47;11.27;;;;;;;;;;5029844;28;20442;-74
2022/05/11 00:58:18;;;;;;;12.50;11.40;;;;;;;;;;5029516;28;20466;-75
2022/05/11 01:00:45;;;;;;;13.27;12.17;;;;;;;;;;5029871;28;20438;-74
2022/05/11 01:03:14;;;;;;;11.67;10.73;;;;;;;;;;5029381;28;20501;-76
2022/05/11 01:05:42;;;;;;;12.33;11.23;;;;;;;;;;5029331;28;20820;-75
2022/05/11 01:08:10;;;;;;;12.27;11.27;;;;;;;;;;5045998;28;20465;-75
2022/05/11 01:10:37;;;;;;;12.03;11.13;;;;;;;;;;5048964;28;20479;-75
2022/05/11 01:13:08;;;;;;;11.83;10.83;;;;;;;;;;5048865;28;20954;-75
2022/05/11 01:15:35;;;;;;;12.00;11.10;;;;;;;;;;5049301;28;20445;-75
2022/05/11 01:18:03;;;;;;;11.47;10.57;;;;;;;;;;5049318;28;20523;-74
2022/05/11 01:20:33;;;;;;;12.00;11.00;;;;;;;;;;5049024;28;20937;-74
2022/05/11 01:23:02;;;;;;;12.03;11.03;;;;;;;;;;5049036;28;20511;-76
2022/05/11 01:25:32;;;;;;;11.73;10.83;;;;;;;;;;5049095;28;20941;-75
2022/05/11 01:28:02;;;;;;;11.40;10.60;;;;;;;;;;5051625;28;20458;-76
2022/05/11 01:30:29;;;;;;;12.00;11.10;;;;;;;;;;5053014;28;21118;-73
2022/05/11 01:32:57;;;;;;;11.60;10.80;;;;;;;;;;5052855;28;20461;-75
2022/05/11 01:35:29;;;;;;;12.30;11.30;;;;;;;;;;5053303;28;20445;-75
2022/05/11 01:38:02;;;;;;;11.87;10.80;;;;;;;;;;5052733;28;20473;-75
2022/05/11 01:40:29;;;;;;;12.33;11.33;;;;;;;;;;5053103;28;20441;-73
2022/05/11 01:42:57;;;;;;;11.77;10.90;;;;;;;;;;5052554;28;20946;-75
2022/05/11 01:45:24;;;;;;;10.90;10.10;;;;;;;;;;5052864;28;20449;-75
2022/05/11 01:47:54;;;;;;;11.67;10.70;;;;;;;;;;5052554;28;20477;-75
2022/05/11 01:50:22;;;;;;;11.53;10.57;;;;;;;;;;5052556;28;20930;-75
2022/05/11 01:52:49;;;;;;;12.20;11.27;;;;;;;;;;5052586;28;20445;-74
2022/05/11 01:55:16;;;;;;;12.90;11.77;;;;;;;;;;5052914;28;20464;-75
2022/05/11 01:57:43;;;;;;;12.00;10.97;;;;;;;;;;5052648;28;20519;-76
2022/05/11 02:00:12;;;;;;;12.10;11.20;;;;;;;;;;5052500;28;20472;-75
2022/05/11 02:02:39;;;;;;;13.73;12.67;;;;;;;;;;5052218;28;20446;-74
2022/05/11 02:07:51;;;;;;;14.17;12.93;;;;;;;;;;5053157;28;20480;-74
2022/05/11 02:10:18;;;;;;;12.67;11.67;;;;;;;;;;5052141;28;20911;-75
2022/05/11 02:12:45;;;;;;;13.13;12.03;;;;;;;;;;5051921;28;20511;-76
2022/05/11 02:15:14;;;;;;;14.37;13.07;;;;;;;;;;5052007;28;21003;-76
2022/05/11 02:17:42;;;;;;;13.53;12.53;;;;;;;;;;5052225;28;20549;-76
2022/05/11 02:20:09;;;;;;;12.57;11.57;;;;;;;;;;5052199;28;20453;-76
2022/05/11 02:22:37;;;;;;;13.07;12.07;;;;;;;;;;5051721;28;20820;-76
2022/05/11 02:25:04;;;;;;;11.53;10.60;;;;;;;;;;5052166;28;20446;-73
2022/05/11 02:27:32;;;;;;;12.73;11.70;;;;;;;;;;5051990;28;20531;-75
2022/05/11 02:29:59;;;;;;;12.60;11.53;;;;;;;;;;5051741;28;20477;-75
2022/05/11 02:32:28;;;;;;;12.87;11.80;;;;;;;;;;5051721;28;20509;-75
2022/05/11 02:35:13;;;;;;;12.20;11.30;;;;;;;;;;5051613;28;20507;-75
2022/05/11 02:37:40;;;;;;;13.77;12.37;;;;;;;;;;5051772;28;20476;-75
2022/05/11 02:40:07;;;;;;;12.97;11.90;;;;;;;;;;5050971;28;20476;-75
2022/05/11 02:42:34;;;;;;;12.60;11.47;;;;;;;;;;5051381;28;20960;-74
2022/05/11 02:45:01;;;;;;;11.90;11.00;;;;;;;;;;5051939;28;20449;-75
2022/05/11 02:47:30;;;;;;;12.30;11.30;;;;;;;;;;5051517;28;20535;-75
2022/05/11 02:49:57;;;;;;;11.33;10.40;;;;;;;;;;5051589;28;20460;-75
2022/05/11 02:52:25;;;;;;;11.30;9.60;;;;;;;;;;5051653;28;20489;-75
2022/05/11 02:54:52;;;;;;;10.77;9.87;;;;;;;;;;5051486;28;20446;-74
2022/05/11 02:57:19;;;;;;;10.93;10.13;;;;;;;;;;5051504;28;20474;-76
2022/05/11 02:59:49;;;;;;;10.53;9.60;;;;;;;;;;5051552;28;20951;-74
2022/05/11 03:02:16;;;;;;;11.23;10.33;;;;;;;;;;5051219;28;20951;-76
2022/05/11 03:04:44;;;;;;;10.90;10.10;;;;;;;;;;5051171;28;20953;-74
2022/05/11 03:07:11;;;;;;;15.17;10.57;;;;;;;;;;5051191;28;20466;-75
2022/05/11 03:09:38;;;;;;;10.60;9.63;;;;;;;;;;5050917;28;20865;-74
2022/05/11 03:12:06;;;;;;;10.23;9.40;;;;;;;;;;5051359;28;20517;-75
2022/05/11 03:14:33;;;;;;;9.50;8.70;;;;;;;;;;5051576;28;20453;-75
2022/05/11 03:17:02;;;;;;;10.60;9.50;;;;;;;;;;5053200;28;20465;-76
2022/05/11 03:19:29;;;;;;;10.33;9.43;;;;;;;;;;5054999;28;20820;-76
2022/05/11 03:21:57;;;;;;;10.37;9.47;;;;;;;;;;5052758;28;20448;-75
2022/05/11 03:24:25;;;;;;;10.00;9.20;;;;;;;;;;5051256;28;20437;-74
2022/05/11 03:26:52;;;;;;;9.83;9.13;;;;;;;;;;5051041;28;20824;-75
2022/05/11 03:29:19;;;;;;;10.33;9.53;;;;;;;;;;5051057;28;20449;-75
2022/05/11 03:34:36;;;;;;;10.30;9.50;;;;;;;;;;5050909;28;20509;-77
2022/05/11 03:34:36;;;;;;;10.10;9.30;;;;;;;;;;5050469;28;20804;-76
2022/05/11 03:37:05;;;;;;;10.10;9.30;;;;;;;;;;5051096;28;20511;-78
2022/05/11 03:39:33;;;;;;;10.50;9.60;;;;;;;;;;5050949;28;20445;-75
2022/05/11 03:42:00;;;;;;;10.07;9.27;;;;;;;;;;5050786;28;20445;-76
2022/05/11 03:44:28;;;;;;;9.93;9.13;;;;;;;;;;5050564;28;20480;-75
2022/05/11 03:46:55;;;;;;;9.70;8.83;;;;;;;;;;5050416;28;20462;-76
2022/05/11 03:49:22;;;;;;;10.70;9.60;;;;;;;;;;5050612;28;20430;-74
2022/05/11 03:51:49;;;;;;;9.83;9.07;;;;;;;;;;5050378;28;20489;-74
2022/05/11 03:54:17;;;;;;;11.00;10.10;;;;;;;;;;5050750;28;20446;-75
2022/05/11 03:56:44;;;;;;;10.60;9.60;;;;;;;;;;5051331;28;20484;-75
2022/05/11 03:59:11;;;;;;;10.30;9.50;;;;;;;;;;5055829;28;20499;-74
2022/05/11 04:01:39;;;;;;;10.03;9.23;;;;;;;;;;5051591;28;20504;-74
2022/05/11 04:04:06;;;;;;;11.07;10.00;;;;;;;;;;5049891;28;20532;-75
2022/05/11 04:06:33;;;;;;;9.97;9.17;;;;;;;;;;5050681;28;20438;-74
2022/05/11 04:09:00;;;;;;;10.40;9.47;;;;;;;;;;5050736;28;20445;-74
2022/05/11 04:11:29;;;;;;;9.57;8.80;;;;;;;;;;5050164;28;20473;-73
2022/05/11 04:13:57;;;;;;;10.10;9.30;;;;;;;;;;5049895;28;20574;-74
2022/05/11 04:16:24;;;;;;;9.90;9.00;;;;;;;;;;5049708;28;20492;-73
2022/05/11 04:18:51;;;;;;;10.23;9.33;;;;;;;;;;5056024;28;20503;-73
2022/05/11 04:21:18;;;;;;;10.20;9.30;;;;;;;;;;5065856;28;20437;-74
2022/05/11 04:23:45;;;;;;;9.07;8.27;;;;;;;;;;5051283;28;20480;-75
2022/05/11 04:26:14;;;;;;;8.50;7.90;;;;;;;;;;5051004;28;20453;-74
2022/05/11 04:28:44;;;;;;;8.83;8.13;;;;;;;;;;5050542;28;20478;-74
2022/05/11 04:31:13;;;;;;;9.30;8.50;;;;;;;;;;5051129;28;20473;-73
2022/05/11 04:33:40;;;;;;;8.90;8.10;;;;;;;;;;5047500;28;20508;-75
2022/05/11 04:36:08;;;;;;;9.50;8.60;;;;;;;;;;5065147;28;20449;-75
2022/05/11 04:38:35;;;;;;;8.37;7.77;;;;;;;;;;5067983;28;20975;-74
2022/05/11 04:41:02;;;;;;;13.17;12.00;;;;;;;;;;5070867;28;20494;-74
2022/05/11 04:43:29;;;;;;;9.53;8.57;;;;;;;;;;5070511;28;20433;-74
2022/05/11 04:45:58;;;;;;;8.00;7.40;;;;;;;;;;5070552;28;20460;-73
2022/05/11 04:48:25;;;;;;;8.23;7.53;;;;;;;;;;5070461;28;20468;-74
2022/05/11 04:50:52;;;;;;;7.67;7.13;;;;;;;;;;5069790;28;20436;-75
2022/05/11 04:53:20;;;;;;;7.90;7.40;;;;;;;;;;5069515;28;20491;-75
2022/05/11 04:55:49;;;;;;;8.07;7.37;;;;;;;;;;5074865;28;20459;-75
2022/05/11 04:58:16;;;;;;;7.70;7.10;;;;;;;;;;5070340;28;20337;-76
2022/05/11 05:00:43;;;;;;;8.07;7.47;;;;;;;;;;5070167;28;20253;-75
2022/05/11 05:03:12;;;;;;;8.20;7.60;;;;;;;;;;5072251;28;20490;-74
2022/05/11 05:05:40;;;;;;;10.83;7.47;;;;;;;;;;5073864;28;20451;-76
2022/05/11 05:08:07;;;;;;;8.23;7.43;;;;;;;;;;5057139;28;20572;-76
2022/05/11 05:10:34;;;;;;;8.90;8.00;;;;;;;;;;5054221;28;20503;-74
2022/05/11 05:13:05;;;;;;;8.30;7.60;;;;;;;;;;5054553;28;20829;-75
2022/05/11 05:15:32;;;;;;;7.83;7.33;;;;;;;;;;5054757;28;20446;-76
2022/05/11 05:18:01;;;;;;;7.43;6.93;;;;;;;;;;5053913;28;20477;-75
2022/05/11 05:20:30;;;;;;;7.30;6.80;;;;;;;;;;5053690;28;20933;-75
2022/05/11 05:22:57;;;;;;;8.87;6.87;;;;;;;;;;5053118;28;20473;-76
2022/05/11 05:25:24;;;;;;;7.87;7.17;;;;;;;;;;5053396;28;20498;-74
2022/05/11 05:27:51;;;;;;;7.33;6.83;;;;;;;;;;5053564;28;20461;-75
2022/05/11 05:33:03;;;;;;;7.53;7.00;;;;;;;;;;5052518;28;20973;-76
2022/05/11 05:35:32;;;;;;;7.90;7.10;;;;;;;;;;5053110;28;20203;-75
2022/05/11 05:37:59;;;;;;;9.80;6.70;;;;;;;;;;5053262;28;20462;-74
2022/05/11 05:40:26;;;;;;;8.20;7.50;;;;;;;;;;5052660;28;20444;-76
2022/05/11 05:42:53;;;;;;;7.80;7.20;;;;;;;;;;5052873;28;20195;-76
2022/05/11 05:45:20;;;;;;;7.90;7.33;;;;;;;;;;5053037;28;20450;-75
2022/05/11 05:47:47;;;;;;;7.23;6.63;;;;;;;;;;5052473;28;20496;-75
2022/05/11 05:50:14;;;;;;;7.10;6.60;;;;;;;;;;5052649;28;20442;-75
2022/05/11 05:52:42;;;;;;;22.50;20.40;;;;;;;;;;5052459;28;20481;-74
2022/05/11 05:55:10;;;;;;;8.97;8.17;;;;;;;;;;5052878;28;20442;-75
2022/05/11 05:57:37;;;;;;;8.40;7.80;;;;;;;;;;5052615;28;20841;-76
2022/05/11 06:00:04;;;;;;;9.80;9.10;;;;;;;;;;5052572;28;20933;-75
2022/05/11 06:02:31;;;;;;;8.87;8.17;;;;;;;;;;5052169;28;20445;-75
2022/05/11 06:04:58;;;;;;;8.00;7.40;;;;;;;;;;5052952;28;20888;-75
2022/05/11 06:07:25;;;;;;;7.53;6.60;;;;;;;;;;5052642;28;20492;-76
2022/05/11 06:09:54;;;;;;;9.57;8.90;;;;;;;;;;5053022;28;20441;-75
2022/05/11 06:12:21;;;;;;;9.73;8.93;;;;;;;;;;5052632;28;21004;-75
2022/05/11 06:14:48;;;;;;;8.30;7.70;;;;;;;;;;5051158;28;21187;-74
2022/05/11 06:17:17;;;;;;;8.93;8.07;;;;;;;;;;5052715;28;20469;-74
2022/05/11 06:19:44;;;;;;;7.63;7.03;;;;;;;;;;5053382;28;20445;-75
2022/05/11 06:22:11;;;;;;;11.63;6.80;;;;;;;;;;5052697;28;20472;-75
2022/05/11 06:24:38;;;;;;;8.50;7.70;;;;;;;;;;5052339;28;20810;-76
2022/05/11 06:27:08;;;;;;;9.07;8.17;;;;;;;;;;5052223;28;20491;-76
2022/05/11 06:29:35;;;;;;;8.17;7.67;;;;;;;;;;5052611;28;20449;-76
2022/05/11 06:32:02;;;;;;;8.00;7.37;;;;;;;;;;5052241;28;20960;-75
2022/05/11 06:34:29;;;;;;;8.50;7.80;;;;;;;;;;5051776;28;20461;-74
2022/05/11 06:36:56;;;;;;;7.93;7.13;;;;;;;;;;5047726;28;20479;-76
2022/05/11 06:39:23;;;;;;;7.70;6.37;;;;;;;;;;5060500;28;20519;-76
2022/05/11 06:41:50;;;;;;;7.17;6.57;;;;;;;;;;5071928;28;20472;-76
2022/05/11 06:44:19;;;;;;;7.83;7.23;;;;;;;;;;5071996;28;20452;-75
2022/05/11 06:46:46;;;;;;;7.60;7.00;;;;;;;;;;5072122;28;20992;-75
2022/05/11 06:49:13;;;;;;;7.03;6.43;;;;;;;;;;5073400;28;20979;-74
2022/05/11 06:51:40;;;;;;;7.20;6.70;;;;;;;;;;5073587;28;20506;-75
2022/05/11 06:59:38;;;;;;;6.67;6.17;;;;;;;;;;5072562;28;20428;-74
2022/05/11 07:02:06;;;;;;;6.80;6.20;;;;;;;;;;5071252;28;20498;-75
2022/05/11 07:04:35;;;;;;;6.17;5.77;;;;;;;;;;5071053;28;20543;-75
2022/05/11 07:07:03;;;;;;;6.70;6.00;;;;;;;;;;5063358;28;20454;-74
2022/05/11 07:09:32;;;;;;;8.83;6.73;;;;;;;;;;5051167;28;20441;-75
2022/05/11 07:12:18;;;;;;;6.50;5.97;;;;;;;;;;5050866;28;20509;-74
2022/05/11 07:14:47;;;;;;;6.13;5.53;;;;;;;;;;5059050;28;20456;-74
2022/05/11 07:17:24;;;;;;;7.03;6.43;;;;;;;;;;5058923;28;20465;-74
2022/05/11 07:19:51;;;;;;;8.93;6.47;;;;;;;;;;5054683;28;20451;-75
2022/05/11 07:22:18;;;;;;;6.73;5.87;;;;;;;;;;5062447;28;20829;-75
2022/05/11 07:24:45;;;;;;;5.33;4.93;;;;;;;;;;5070238;28;20584;-75
2022/05/11 07:27:12;;;;;;;4.87;4.57;;;;;;;;;;5071048;28;20506;-75
2022/05/11 07:29:39;;;;;;;5.80;5.30;;;;;;;;;;5070962;28;20463;-76
2022/05/11 07:32:09;;;;;;;6.50;5.27;;;;;;;;;;5070373;28;20987;-75
2022/05/11 07:34:36;;;;;;;5.50;5.10;;;;;;;;;;5070151;28;20459;-75
2022/05/11 07:37:03;;;;;;;5.07;4.77;;;;;;;;;;5070416;28;20460;-76
2022/05/11 07:39:30;;;;;;;6.33;5.83;;;;;;;;;;5070654;28;20441;-74
2022/05/11 07:41:58;;;;;;;6.43;4.67;;;;;;;;;;5070411;28;20506;-74
2022/05/11 07:44:26;;;;;;;5.73;5.33;;;;;;;;;;5069975;28;20773;-75
2022/05/11 07:46:53;;;;;;;5.03;4.73;;;;;;;;;;5070405;28;20465;-74
2022/05/11 07:49:21;;;;;;;4.97;4.57;;;;;;;;;;5070373;28;20425;-74
2022/05/11 07:51:49;;;;;;;5.00;4.70;;;;;;;;;;5069941;28;20441;-75
2022/05/11 07:54:17;;;;;;;5.10;4.70;;;;;;;;;;5070146;28;20446;-75
2022/05/11 08:02:14;;;;;;;5.07;4.77;;;;;;;;;;5070080;28;20461;-74
2022/05/11 08:04:42;;;;;;;4.93;4.63;;;;;;;;;;5069741;28;20872;-74
2022/05/11 08:07:10;;;;;;;4.87;4.57;;;;;;;;;;5053076;28;20969;-76
2022/05/11 08:09:38;;;;;;;4.50;4.10;;;;;;;;;;5058911;28;20445;-74
2022/05/11 08:12:05;;;;;;;4.55;4.20;;;;;;;;;;5062987;28;20429;-75
2022/05/11 08:14:32;;;;;;;6.32;4.72;;;;;;;;;;5069050;28;20499;-74
2022/05/11 08:16:59;;;;;;;5.32;4.82;;;;;;;;;;5069694;28;20446;-74
2022/05/11 08:19:27;;;;;;;9.10;4.13;;;;;;;;;;5069940;28;20206;-75
2022/05/11 08:21:56;;;;;;;4.90;4.57;;;;;;;;;;5070014;28;20468;-75
2022/05/11 08:24:23;;;;;;;4.63;4.20;;;;;;;;;;5069921;28;20441;-74
2022/05/11 08:26:51;;;;;;;4.88;4.50;;;;;;;;;;5069047;28;20438;-75
2022/05/11 08:34:44;;;;;;;5.00;4.60;;;;;;;;;;5069117;28;20436;-74
2022/05/11 08:37:13;;;;;;;4.57;4.23;;;;;;;;;;5068904;28;20456;-75
2022/05/11 08:39:41;;;;;;;6.83;4.40;;;;;;;;;;5070103;28;20540;-75
2022/05/11 08:42:08;;;;;;;4.50;4.20;;;;;;;;;;5069619;28;20459;-75
2022/05/11 08:44:36;;;;;;;4.70;4.30;;;;;;;;;;5069731;28;20444;-75
2022/05/11 08:47:10;;;;;;;5.40;4.10;;;;;;;;;;5069159;28;20479;-75
2022/05/11 08:49:44;;;;;;;8.70;4.40;;;;;;;;;;5069916;28;20445;-74
2022/05/11 08:52:19;;;;;;;4.10;3.80;;;;;;;;;;5052035;28;20453;-75
2022/05/11 08:54:48;;;;;;;4.63;4.33;;;;;;;;;;5053112;28;20445;-75
2022/05/11 08:57:18;;;;;;;4.17;3.90;;;;;;;;;;5061607;28;20460;-75
2022/05/11 08:59:46;;;;;;;4.70;4.23;;;;;;;;;;5069748;28;20487;-76
2022/05/11 09:02:17;;;;;;;4.73;4.37;;;;;;;;;;5069721;28;20516;-75
2022/05/11 09:04:47;;;;;;;5.03;4.63;;;;;;;;;;5069593;28;20484;-75
2022/05/11 09:07:16;;;;;;;4.90;4.60;;;;;;;;;;5060694;28;20462;-74
2022/05/11 09:09:43;;;;;;;5.22;4.50;;;;;;;;;;5049005;28;20439;-76
2022/05/11 09:12:11;;;;;;;5.63;5.23;;;;;;;;;;5049978;28;20199;-74
2022/05/11 09:14:39;;;;;;;8.13;5.17;;;;;;;;;;5061426;28;20511;-74
2022/05/11 09:17:09;;;;;;;7.03;5.20;;;;;;;;;;5069612;28;20450;-75
2022/05/11 09:19:36;;;;;;;5.10;4.70;;;;;;;;;;5070461;28;20199;-74
2022/05/11 09:22:09;;;;;;;4.70;4.40;;;;;;;;;;5070433;28;20452;-75
2022/05/11 09:24:38;;;;;;;5.30;4.80;;;;;;;;;;5068475;28;20693;-74
2022/05/11 09:27:08;;;;;;;5.60;5.10;;;;;;;;;;5069344;28;20464;-76
2022/05/11 09:29:37;;;;;;;5.17;4.87;;;;;;;;;;5069859;28;20206;-76
2022/05/11 09:32:24;;;;;;;6.43;5.43;;;;;;;;;;5069483;28;20510;-74
2022/05/11 09:34:52;;;;;;;4.93;4.63;;;;;;;;;;5068786;28;20426;-74
2022/05/11 09:37:25;;;;;;;5.13;4.67;;;;;;;;;;5069369;28;20226;-74
2022/05/11 09:39:55;;;;;;;5.30;5.00;;;;;;;;;;5069639;28;20453;-75
2022/05/11 09:42:29;;;;;;;5.10;4.70;;;;;;;;;;5068434;28;20487;-75
2022/05/11 09:44:56;;;;;;;5.53;5.03;;;;;;;;;;5069229;28;20247;-75
2022/05/11 09:47:25;;;;;;;6.23;5.50;;;;;;;;;;5069075;28;20832;-75
2022/05/11 09:49:52;;;;;;;5.50;5.07;;;;;;;;;;5072524;28;20932;-74
2022/05/11 09:52:28;;;;;;;9.63;5.63;;;;;;;;;;5055018;28;20531;-76
2022/05/11 09:54:57;;;;;;;6.17;5.57;;;;;;;;;;5055146;28;20444;-74
2022/05/11 09:57:27;;;;;;;6.20;5.10;;;;;;;;;;5058035;28;20468;-75
2022/05/11 09:59:56;;;;;;;6.97;5.37;;;;;;;;;;5050881;28;20455;-74
2022/05/11 10:02:26;;;;;;;8.10;5.20;;;;;;;;;;5060236;28;20439;-75
2022/05/11 10:04:57;;;;;;;6.05;5.55;;;;;;;;;;5032237;28;20515;-76
2022/05/11 10:07:26;;;;;;;6.03;5.73;;;;;;;;;;5043366;28;20215;-75
2022/05/11 10:09:55;;;;;;;5.53;5.13;;;;;;;;;;5052999;28;20452;-75
2022/05/11 10:12:27;;;;;;;6.40;5.90;;;;;;;;;;5053023;28;20456;-77
2022/05/11 10:23:13;;;;;;;7.25;5.50;;;;;;;;;;5051726;28;20998;-75
2022/05/11 10:25:41;;;;;;;7.10;5.83;;;;;;;;;;5052847;28;20210;-75
2022/05/11 10:28:19;;;;;;;5.80;5.30;;;;;;;;;;5052517;28;20470;-74
2022/05/11 10:30:51;;;;;;;5.77;5.20;;;;;;;;;;5052911;28;20449;-74
2022/05/11 10:33:23;;;;;;;6.40;5.90;;;;;;;;;;5051397;28;20478;-74
2022/05/11 10:35:59;;;;;;;5.45;4.95;;;;;;;;;;5051274;28;20436;-74
2022/05/11 10:38:32;;;;;;;5.30;4.80;;;;;;;;;;5051042;28;20523;-74
2022/05/11 10:41:04;;;;;;;7.33;5.33;;;;;;;;;;5052201;28;20232;-75
2022/05/11 10:43:38;;;;;;;5.17;4.80;;;;;;;;;;5051697;28;20438;-75
2022/05/11 10:46:07;;;;;;;5.47;4.47;;;;;;;;;;5052291;28;20463;-74
2022/05/11 10:48:43;;;;;;;4.90;4.60;;;;;;;;;;5051746;28;20540;-75
2022/05/11 10:51:13;;;;;;;4.90;4.60;;;;;;;;;;5051746;28;20441;-73
2022/05/11 10:53:42;;;;;;;4.70;4.30;;;;;;;;;;5051313;28;20485;-74
2022/05/11 10:56:20;;;;;;;5.57;5.17;;;;;;;;;;5051630;28;21032;-74
2022/05/11 10:59:00;;;;;;;6.20;4.53;;;;;;;;;;5051730;28;20535;-75
2022/05/11 11:01:28;;;;;;;4.67;4.27;;;;;;;;;;5051053;28;20446;-74
2022/05/11 11:04:04;;;;;;;5.03;4.63;;;;;;;;;;5050966;28;20446;-74
2022/05/11 11:09:31;;;;;;;4.93;4.53;;;;;;;;;;5051496;28;20529;-74
2022/05/11 11:12:00;;;;;;;5.50;4.40;;;;;;;;;;5050790;28;20443;-74
2022/05/11 11:14:31;;;;;;;4.25;3.95;;;;;;;;;;5050371;28;20456;-76
2022/05/11 11:16:58;;;;;;;4.10;3.90;;;;;;;;;;5051268;28;20319;-75
2022/05/11 11:19:25;;;;;;;4.73;4.33;;;;;;;;;;5051340;28;20453;-75
2022/05/11 11:21:53;;;;;;;4.80;4.40;;;;;;;;;;5051022;28;20454;-75
2022/05/11 11:24:23;;;;;;;5.23;4.80;;;;;;;;;;5050830;28;20512;-75
2022/05/11 11:26:51;;;;;;;4.87;4.40;;;;;;;;;;5051094;28;20518;-74
2022/05/11 11:29:20;;;;;;;4.50;4.20;;;;;;;;;;5050929;28;20441;-75
2022/05/11 11:32:19;;;;;;;4.67;4.27;;;;;;;;;;5050830;28;20531;-75
2022/05/11 11:34:49;;;;;;;6.10;4.00;;;;;;;;;;5053182;28;20484;-75
2022/05/11 11:37:35;;;;;;;4.73;4.33;;;;;;;;;;5054074;28;20457;-75
2022/05/11 11:40:16;;;;;;;5.65;4.22;;;;;;;;;;5048092;28;20432;-75
2022/05/11 11:42:44;;;;;;;4.03;3.73;;;;;;;;;;5050374;28;20202;-74
2022/05/11 11:45:18;;;;;;;4.67;4.30;;;;;;;;;;5050972;28;20437;-74
2022/05/11 11:48:00;;;;;;;4.33;4.13;;;;;;;;;;5050760;28;20494;-74
2022/05/11 11:50:49;;;;;;;4.97;4.50;;;;;;;;;;5031141;28;20537;-74
2022/05/11 11:53:22;;;;;;;3.90;3.70;;;;;;;;;;5030777;28;21162;-76
2022/05/11 11:55:50;;;;;;;3.83;3.53;;;;;;;;;;5050312;28;20441;-76
2022/05/11 11:58:28;;;;;;;4.37;4.03;;;;;;;;;;5051140;28;21044;-75
2022/05/11 12:01:04;;;;;;;4.40;4.10;;;;;;;;;;5050722;28;20476;-74
2022/05/11 12:03:32;;;;;;;4.40;4.00;;;;;;;;;;5050459;28;20441;-76
2022/05/11 12:17:02;;;;;;;4.03;3.73;;;;;;;;;;5049349;28;20570;-75
2022/05/11 12:19:31;;;;;;;3.67;3.47;;;;;;;;;;5049709;28;20448;-76
2022/05/11 12:22:01;;;;;;;4.73;4.10;;;;;;;;;;5049696;28;20445;-76
2022/05/11 12:24:29;;;;;;;3.63;3.33;;;;;;;;;;5047156;28;20492;-75
2022/05/11 12:26:59;;;;;;;4.33;3.60;;;;;;;;;;5049841;28;20461;-77
2022/05/11 12:32:11;;;;;;;3.60;3.30;;;;;;;;;;5049662;28;20416;-76
2022/05/11 12:34:41;;;;;;;3.30;3.10;;;;;;;;;;5049750;28;20481;-75
2022/05/11 12:37:21;;;;;;;4.20;3.80;;;;;;;;;;5049756;28;20468;-76
2022/05/11 12:39:54;;;;;;;5.63;3.57;;;;;;;;;;5049865;28;20787;-75
2022/05/11 12:42:27;;;;;;;4.00;3.37;;;;;;;;;;5049758;28;20492;-75
2022/05/11 12:44:56;;;;;;;6.27;3.30;;;;;;;;;;5049774;28;20437;-75
2022/05/11 12:47:23;;;;;;;4.60;3.10;;;;;;;;;;5049813;28;20556;-75
2022/05/11 12:49:50;;;;;;;3.60;3.30;;;;;;;;;;5049905;28;20519;-75
2022/05/11 12:52:20;;;;;;;3.43;3.23;;;;;;;;;;5048241;28;20450;-76
2022/05/11 12:54:56;;;;;;;16.53;3.30;;;;;;;;;;5060089;28;21163;-74
2022/05/11 12:57:23;;;;;;;3.30;3.10;;;;;;;;;;5065785;28;20560;-74
2022/05/11 12:59:51;;;;;;;3.57;3.20;;;;;;;;;;5069660;28;20452;-75
2022/05/11 13:02:19;;;;;;;3.40;3.10;;;;;;;;;;5069624;28;20475;-75
2022/05/11 13:04:51;;;;;;;3.50;3.30;;;;;;;;;;5069333;28;20463;-75
2022/05/11 13:07:21;;;;;;;4.10;3.40;;;;;;;;;;5059814;28;20540;-75
2022/05/11 13:09:49;;;;;;;3.90;3.53;;;;;;;;;;5049513;28;20492;-75
2022/05/11 13:12:17;;;;;;;3.10;3.00;;;;;;;;;;5049578;28;20434;-73
2022/05/11 13:14:48;;;;;;;3.83;3.50;;;;;;;;;;5049401;28;20477;-77
2022/05/11 13:17:20;;;;;;;3.10;2.90;;;;;;;;;;5049751;28;20461;-75
2022/05/11 13:19:53;;;;;;;3.73;3.43;;;;;;;;;;5049448;28;20461;-75
2022/05/11 13:22:24;;;;;;;3.30;3.07;;;;;;;;;;5049849;28;20433;-76
2022/05/11 13:24:53;;;;;;;3.67;3.40;;;;;;;;;;5052837;28;20439;-75
2022/05/11 13:27:41;;;;;;;3.33;3.10;;;;;;;;;;5047907;28;20497;-75
2022/05/11 13:30:10;;;;;;;3.40;2.70;;;;;;;;;;5047419;28;20456;-75
2022/05/11 13:32:38;;;;;;;3.57;3.27;;;;;;;;;;5065133;28;20513;-76
2022/05/11 13:35:22;;;;;;;6.33;4.23;;;;;;;;;;5066484;28;20480;-75
2022/05/11 13:37:58;;;;;;;4.87;3.60;;;;;;;;;;5072840;28;21106;-74
2022/05/11 13:40:30;;;;;;;3.20;2.70;;;;;;;;;;5072845;28;20534;-76
2022/05/11 13:42:57;;;;;;;3.30;3.00;;;;;;;;;;5072284;28;20448;-76
2022/05/11 13:45:24;;;;;;;6.67;3.70;;;;;;;;;;5072852;28;20440;-74
2022/05/11 13:50:39;;;;;;;3.30;3.10;;;;;;;;;;5072998;28;20699;-74
2022/05/11 13:53:20;;;;;;;4.10;3.67;;;;;;;;;;5072246;28;20444;-73
2022/05/11 13:56:03;;;;;;;5.23;3.70;;;;;;;;;;5062532;28;21080;-74
2022/05/11 13:58:34;;;;;;;3.40;3.20;;;;;;;;;;5044976;28;20900;-74
2022/05/11 14:01:04;;;;;;;3.27;2.97;;;;;;;;;;5050811;28;20487;-74
2022/05/11 14:03:33;;;;;;;3.23;3.03;;;;;;;;;;5050753;28;20492;-76
2022/05/11 14:06:00;;;;;;;6.00;3.50;;;;;;;;;;5063662;28;20455;-75
2022/05/11 14:08:28;;;;;;;4.27;2.80;;;;;;;;;;5053140;28;20968;-74
2022/05/11 14:10:55;;;;;;;3.40;3.10;;;;;;;;;;5052356;28;20445;-75
2022/05/11 14:13:26;;;;;;;5.67;3.67;;;;;;;;;;5052212;28;20449;-75
2022/05/11 14:15:53;;;;;;;3.20;3.00;;;;;;;;;;5052043;28;20485;-74
2022/05/11 14:18:21;;;;;;;3.57;3.27;;;;;;;;;;5052178;28;20461;-74
2022/05/11 14:20:49;;;;;;;4.13;3.17;;;;;;;;;;5052443;28;20452;-75
2022/05/11 14:23:16;;;;;;;3.63;3.13;;;;;;;;;;5051889;28;20477;-76
2022/05/11 14:25:45;;;;;;;3.40;3.00;;;;;;;;;;5053157;28;20446;-74
2022/05/11 14:28:12;;;;;;;3.30;3.10;;;;;;;;;;5051967;28;20881;-75
2022/05/11 14:30:40;;;;;;;3.27;3.07;;;;;;;;;;5052118;28;20529;-76
2022/05/11 14:33:07;;;;;;;3.30;3.10;;;;;;;;;;5051405;28;20445;-74
2022/05/11 14:35:34;;;;;;;5.70;3.10;;;;;;;;;;5050990;28;20481;-74
2022/05/11 14:38:01;;;;;;;2.97;2.80;;;;;;;;;;5052148;28;20477;-78
2022/05/11 14:40:30;;;;;;;3.33;2.73;;;;;;;;;;5051965;28;20449;-75
2022/05/11 14:42:58;;;;;;;3.20;3.00;;;;;;;;;;5051858;28;20973;-75
2022/05/11 14:45:25;;;;;;;3.17;2.97;;;;;;;;;;5051814;28;20469;-75
2022/05/11 14:47:56;;;;;;;3.03;2.80;;;;;;;;;;5051835;28;20492;-74
2022/05/11 14:50:23;;;;;;;3.43;3.13;;;;;;;;;;5051765;28;20809;-76
2022/05/11 14:52:51;;;;;;;4.07;3.67;;;;;;;;;;5051244;28;20441;-77
2022/05/11 14:55:19;;;;;;;3.70;3.40;;;;;;;;;;5040828;28;20482;-77
2022/05/11 15:03:18;;;;;;;3.43;3.13;;;;;;;;;;5051316;28;20436;-77
2022/05/11 15:05:46;;;;;;;3.33;3.03;;;;;;;;;;5062695;28;20452;-75
2022/05/11 15:08:13;;;;;;;3.33;3.07;;;;;;;;;;5054965;28;20491;-75
2022/05/11 15:10:42;;;;;;;3.67;3.37;;;;;;;;;;5054941;28;20445;-76
2022/05/11 15:15:55;;;;;;;3.50;3.20;;;;;;;;;;5054191;28;20523;-74
2022/05/11 15:18:23;;;;;;;3.93;3.73;;;;;;;;;;5052713;28;20473;-75
2022/05/11 15:20:50;;;;;;;3.10;2.90;;;;;;;;;;5053237;28;20449;-75
2022/05/11 15:23:18;;;;;;;3.80;3.60;;;;;;;;;;5052068;28;20503;-75
2022/05/11 15:25:45;;;;;;;3.70;3.50;;;;;;;;;;5050869;28;20956;-75
2022/05/11 15:28:12;;;;;;;3.80;3.40;;;;;;;;;;5051390;28;20622;-75
2022/05/11 15:30:41;;;;;;;3.97;3.77;;;;;;;;;;5051145;28;20441;-75
2022/05/11 15:33:11;;;;;;;3.90;3.70;;;;;;;;;;5050532;28;20571;-76
2022/05/11 15:35:38;;;;;;;3.57;3.40;;;;;;;;;;5050821;28;20507;-76
2022/05/11 15:38:05;;;;;;;3.70;3.50;;;;;;;;;;5049257;28;21017;-75
2022/05/11 15:40:32;;;;;;;4.23;3.53;;;;;;;;;;5057143;28;20515;-77
2022/05/11 15:43:00;;;;;;;5.97;3.53;;;;;;;;;;5061795;28;20795;-75
2022/05/11 15:45:28;;;;;;;3.83;3.50;;;;;;;;;;5070197;28;20448;-76